Aérodrome :
LOGIN :

S'inscrire | Disclaimer

   EN    FR    IT 

 










Légende :    VFR   VFR Marginal   IFR   IFR Intensif   IFR Très Intensif
Visi : 
Plafond : 
>= 8 km
>= 3000ft
5 à 8 km
1000 à 3000 ft
1500m à 5 km
500 à 1000 ft
800 à 1500m
200 à 500 ft
< 800m
< 200 ft
Symboles :   Orages  Brouillard  Fortes neiges  Fortes précipitations  Vent > 20 kt
SIGMETs :   Divers  Orages  Givrage  Turbulence  Onde Orograph.  Cendres Volcan.







- Altitude de l'aérodrome : 1115 ft
- Code IATA : GRZ


LOWG - Graz

DERNIER METAR :
  • 251950Z 23007KT 190V270 9999 FEW060 BKN210 14/05 Q1008 NOSIG

METARs EXPIRÉS :
  • 251920Z 17012KT 9999 SCT060 14/05 Q1008 NOSIG
  • 251850Z 19011KT 160V230 9999 SCT060 15/05 Q1008 NOSIG
  • 251820Z 20009KT 170V240 9999 FEW060 SCT080 15/05 Q1007 NOSIG
  • 251750Z 21008KT 170V240 9999 FEW070 16/05 Q1007 NOSIG
  • 251720Z 21010KT 180V240 9999 FEW070 16/04 Q1007 NOSIG

TAF TAF LOWG
Valide du 25 à 18h jusqu'au 26 à 18h UTC


251715Z 2518/2618 19010KT 9999 FEW070 TX18/2609Z TN12/2522Z
TEMPO 2518/2520 22015G25KT
TEMPO 2607/2618 21015G25KT
PROB40
TEMPO 2611/2616 20020G30KT BKN070
Pas de NOTAMs connus pour ce terrain.



MET'MAP, la Météo Aéronautique d'un coup d'oeil ! - Copyright ORBIFLY Décembre 2007 - Disclaimer

ORBIFLY MET'MAP TEAM :

Programmation & Développement : Alexandra Zaïnal
Conception & Développement : Baudouin d'Aumeries
Co-Programmation & Développement : Marc-Olivier Méhu
Soutien technique & logistique : Manuel Goepfert

Contact : metmap@orbifly.com




SOURCES & CREDITS :

   NOAA